Terminal Aerodrome Forecast
Issued by NWS

Home | Current Version | Previous Version | Text Only | Print | Product List | Glossary On
Versions: 1 2 3 4 5 6 7 8 9 10 11 12 13 14 15 16 17 18 19 20 21 22
000
FTAK31 PANC 262335
TAFADL
TAF
PADL 262335Z 2700/2724 16010KT P6SM -RA SCT006 BKN010 OVC020
      TEMPO 2700/2704 12008KT 5SM -RA BR
     FM270400 12008KT 6SM -RA SCT006 BKN010 OVC020
     FM272100 12008KT 6SM -RA BKN015 OVC030=

USA.gov is the U.S. government's official web portal to all federal, state and local government web resources and services.